JBU390 TJSJ-KEWR
Flight info
| Callsign | JBU390 |
|---|---|
| Flight time | 3h 33m |
| Altitude | 34000 |
| Route | GLADA3 MACOR L455 SAVIK YAALE Y497 SUBBS CYN GXU RBV V249 METRO |
| Aircraft | A320/M-SDE3GHIRWY/B1L |
Departure
| Time | 2026-05-04 16:19 |
|---|---|
| Airport | Luis Munoz Marin International Airport (TJSJ) |
Arrival
| Time | 2026-05-04 19:52 |
|---|---|
| Airport | Newark Liberty International Airport (KEWR) |
| Time | Latitude | Longitude | Altitude | Speed | Heading |
|---|---|---|---|---|---|
| 2026-05-04 15:54 | 18.43553 | -66.00594 | -26 ft | 0 kts | 0° |
| 2026-05-04 16:11 | 18.43536 | -66.00594 | -43 ft | 4 kts | 0° |
| 2026-05-04 16:12 | 18.43467 | -66.00572 | -44 ft | 3 kts | 272° |
| 2026-05-04 16:12 | 18.43467 | -66.00570 | -43 ft | 0 kts | 270° |
| 2026-05-04 16:14 | 18.43467 | -66.00585 | -35 ft | 4 kts | 271° |
| 2026-05-04 16:14 | 18.43468 | -66.00718 | -28 ft | 14 kts | 270° |
| 2026-05-04 16:15 | 18.43466 | -66.01096 | -30 ft | 21 kts | 270° |
| 2026-05-04 16:16 | 18.43476 | -66.01345 | -45 ft | 11 kts | 307° |
| 2026-05-04 16:16 | 18.43754 | -66.01375 | -47 ft | 13 kts | 319° |
| 2026-05-04 16:17 | 18.43763 | -66.01520 | -46 ft | 11 kts | 298° |
| 2026-05-04 16:18 | 18.43906 | -66.01413 | -45 ft | 49 kts | 67° |
| 2026-05-04 16:18 | 18.44126 | -66.00871 | -40 ft | 109 kts | 66° |
| 2026-05-04 16:19 | 18.45428 | -65.97859 | 1004 ft | 162 kts | 52° |
| 2026-05-04 16:19 | 18.47848 | -65.97092 | 1614 ft | 215 kts | 4° |
| 2026-05-04 16:20 | 18.53040 | -65.97122 | 2696 ft | 275 kts | 2° |
| 2026-05-04 16:20 | 18.56933 | -65.97188 | 4381 ft | 282 kts | 2° |
| 2026-05-04 16:21 | 18.62862 | -65.97281 | 6882 ft | 287 kts | 2° |
| 2026-05-04 16:22 | 18.66905 | -65.97334 | 8317 ft | 294 kts | 2° |
| 2026-05-04 16:22 | 18.73176 | -65.97417 | 10290 ft | 310 kts | 0° |
| 2026-05-04 16:23 | 18.80318 | -65.97502 | 10709 ft | 370 kts | 360° |
| 2026-05-04 16:24 | 18.90920 | -65.97646 | 12772 ft | 388 kts | 359° |
| 2026-05-04 16:25 | 18.96328 | -65.97715 | 13843 ft | 394 kts | 358° |
| 2026-05-04 16:26 | 19.07478 | -65.97836 | 15785 ft | 406 kts | 357° |
| 2026-05-04 16:26 | 19.16033 | -65.97924 | 17303 ft | 414 kts | 357° |
| 2026-05-04 16:27 | 19.21839 | -65.97991 | 18299 ft | 420 kts | 356° |
| 2026-05-04 16:28 | 19.30698 | -65.98086 | 19609 ft | 428 kts | 357° |
| 2026-05-04 16:28 | 19.39710 | -65.98177 | 20843 ft | 435 kts | 358° |
| 2026-05-04 16:29 | 19.51956 | -65.98315 | 22347 ft | 444 kts | 358° |
| 2026-05-04 16:30 | 19.61244 | -65.98424 | 23412 ft | 449 kts | 359° |
| 2026-05-04 16:31 | 19.67517 | -65.98491 | 24017 ft | 452 kts | 359° |
| 2026-05-04 16:31 | 19.76989 | -65.98599 | 24872 ft | 455 kts | 359° |
| 2026-05-04 16:32 | 19.86531 | -65.98700 | 25670 ft | 459 kts | 359° |
| 2026-05-04 16:33 | 19.92928 | -65.98772 | 26208 ft | 461 kts | 359° |
| 2026-05-04 16:33 | 19.99366 | -65.98834 | 26741 ft | 464 kts | 358° |
| 2026-05-04 16:34 | 20.05815 | -65.98906 | 27413 ft | 462 kts | 358° |
| 2026-05-04 16:34 | 20.09032 | -65.98942 | 27817 ft | 460 kts | 358° |
| 2026-05-04 16:35 | 20.18273 | -66.00790 | 28975 ft | 453 kts | 334° |
| 2026-05-04 16:35 | 20.26421 | -66.05805 | 30193 ft | 449 kts | 328° |
| 2026-05-04 16:36 | 20.29115 | -66.07509 | 30529 ft | 449 kts | 328° |
| 2026-05-04 16:36 | 20.34474 | -66.10911 | 31225 ft | 447 kts | 328° |
| 2026-05-04 16:37 | 20.39818 | -66.14303 | 31919 ft | 446 kts | 328° |
| 2026-05-04 16:37 | 20.42488 | -66.15995 | 32276 ft | 445 kts | 328° |
| 2026-05-04 16:37 | 20.47813 | -66.19368 | 32990 ft | 444 kts | 328° |
| 2026-05-04 16:38 | 20.53090 | -66.22709 | 33734 ft | 443 kts | 328° |
| 2026-05-04 16:39 | 20.61095 | -66.27797 | 34090 ft | 455 kts | 328° |
| 2026-05-04 16:39 | 20.66596 | -66.31309 | 34086 ft | 463 kts | 328° |
| 2026-05-04 16:40 | 20.77706 | -66.38395 | 34090 ft | 465 kts | 328° |
| 2026-05-04 16:41 | 20.91605 | -66.47258 | 34093 ft | 466 kts | 328° |
| 2026-05-04 16:43 | 21.05510 | -66.56150 | 34091 ft | 466 kts | 328° |
| 2026-05-04 16:43 | 21.13804 | -66.61478 | 34098 ft | 465 kts | 328° |
| 2026-05-04 16:45 | 21.30481 | -66.72193 | 34097 ft | 466 kts | 328° |
| 2026-05-04 16:46 | 21.44376 | -66.81129 | 34099 ft | 466 kts | 328° |
| 2026-05-04 16:47 | 21.55485 | -66.88296 | 34100 ft | 465 kts | 328° |
| 2026-05-04 16:48 | 21.66540 | -66.95450 | 34097 ft | 465 kts | 327° |
| 2026-05-04 16:49 | 21.77635 | -67.02637 | 34096 ft | 466 kts | 327° |
| 2026-05-04 16:50 | 21.88725 | -67.09825 | 34096 ft | 465 kts | 327° |
| 2026-05-04 16:51 | 21.97036 | -67.15216 | 34097 ft | 465 kts | 327° |
| 2026-05-04 16:52 | 22.08111 | -67.22423 | 34091 ft | 465 kts | 327° |
| 2026-05-04 16:53 | 22.16373 | -67.27799 | 34092 ft | 464 kts | 327° |
| 2026-05-04 16:53 | 22.25004 | -67.32483 | 34092 ft | 467 kts | 343° |
| 2026-05-04 16:54 | 22.28191 | -67.33202 | 34089 ft | 468 kts | 347° |
| 2026-05-04 16:55 | 22.47390 | -67.37117 | 34090 ft | 468 kts | 347° |
| 2026-05-04 16:56 | 22.63375 | -67.40401 | 34097 ft | 467 kts | 347° |
| 2026-05-04 16:57 | 22.72926 | -67.42346 | 34098 ft | 467 kts | 347° |
| 2026-05-04 16:58 | 22.85677 | -67.44987 | 34102 ft | 466 kts | 347° |
| 2026-05-04 17:00 | 23.04781 | -67.48910 | 34106 ft | 465 kts | 347° |
| 2026-05-04 17:01 | 23.20643 | -67.52199 | 34095 ft | 463 kts | 347° |
| 2026-05-04 17:02 | 23.33253 | -67.54802 | 34091 ft | 462 kts | 347° |
| 2026-05-04 17:03 | 23.42726 | -67.56766 | 34091 ft | 462 kts | 347° |
| 2026-05-04 17:03 | 23.52206 | -67.58741 | 34098 ft | 462 kts | 347° |
| 2026-05-04 17:04 | 23.63770 | -67.61156 | 34090 ft | 462 kts | 346° |
| 2026-05-04 17:05 | 23.76425 | -67.63777 | 34092 ft | 462 kts | 346° |
| 2026-05-04 17:06 | 23.85903 | -67.65765 | 34104 ft | 462 kts | 346° |
| 2026-05-04 17:07 | 23.94315 | -67.67533 | 34090 ft | 462 kts | 346° |
| 2026-05-04 17:07 | 24.01699 | -67.69087 | 34095 ft | 462 kts | 346° |
| 2026-05-04 17:08 | 24.11181 | -67.71063 | 34110 ft | 462 kts | 346° |
| 2026-05-04 17:09 | 24.17503 | -67.72380 | 34096 ft | 462 kts | 346° |
| 2026-05-04 17:09 | 24.23825 | -67.73709 | 34092 ft | 462 kts | 346° |
| 2026-05-04 17:10 | 24.39617 | -67.77056 | 34093 ft | 462 kts | 346° |
| 2026-05-04 17:11 | 24.45938 | -67.78377 | 34093 ft | 463 kts | 346° |
| 2026-05-04 17:12 | 24.55378 | -67.80370 | 34092 ft | 463 kts | 345° |
| 2026-05-04 17:13 | 24.71206 | -67.83727 | 34092 ft | 463 kts | 345° |
| 2026-05-04 17:14 | 24.83877 | -67.86407 | 34092 ft | 464 kts | 345° |
| 2026-05-04 17:15 | 24.93385 | -67.88439 | 34090 ft | 464 kts | 345° |
| 2026-05-04 17:16 | 25.06094 | -67.91136 | 34091 ft | 465 kts | 345° |
| 2026-05-04 17:17 | 25.18812 | -67.93856 | 34093 ft | 466 kts | 344° |
| 2026-05-04 17:18 | 25.31547 | -67.96582 | 34093 ft | 467 kts | 344° |
| 2026-05-04 17:19 | 25.44297 | -67.99316 | 34086 ft | 467 kts | 344° |
| 2026-05-04 17:20 | 25.57022 | -68.02044 | 34084 ft | 468 kts | 344° |
| 2026-05-04 17:20 | 25.66627 | -68.04114 | 34084 ft | 468 kts | 343° |
| 2026-05-04 17:21 | 25.79433 | -68.06876 | 34089 ft | 469 kts | 343° |
| 2026-05-04 17:22 | 25.85849 | -68.08260 | 34089 ft | 470 kts | 343° |
| 2026-05-04 17:23 | 25.98682 | -68.11040 | 34083 ft | 470 kts | 343° |
| 2026-05-04 17:24 | 26.08321 | -68.13125 | 34098 ft | 470 kts | 343° |
| 2026-05-04 17:25 | 26.21144 | -68.15905 | 34100 ft | 471 kts | 343° |
| 2026-05-04 17:26 | 26.34014 | -68.18709 | 34099 ft | 472 kts | 342° |
| 2026-05-04 17:27 | 26.50230 | -68.22250 | 34080 ft | 476 kts | 341° |
| 2026-05-04 17:28 | 26.63275 | -68.25103 | 34069 ft | 478 kts | 341° |
| 2026-05-04 17:29 | 26.82831 | -68.29404 | 34081 ft | 479 kts | 342° |
| 2026-05-04 17:31 | 26.99211 | -68.33006 | 34079 ft | 483 kts | 342° |
| 2026-05-04 17:32 | 27.15714 | -68.36625 | 34073 ft | 483 kts | 342° |
| 2026-05-04 17:33 | 27.28906 | -68.39555 | 34081 ft | 483 kts | 342° |
| 2026-05-04 17:34 | 27.42196 | -68.42524 | 34043 ft | 485 kts | 343° |
| 2026-05-04 17:35 | 27.58768 | -68.46210 | 34077 ft | 488 kts | 343° |
| 2026-05-04 17:36 | 27.65444 | -68.47683 | 34070 ft | 489 kts | 343° |
| 2026-05-04 17:36 | 27.72128 | -68.49171 | 34071 ft | 490 kts | 343° |
| 2026-05-04 17:37 | 27.78831 | -68.50678 | 34072 ft | 491 kts | 343° |
| 2026-05-04 17:37 | 27.85540 | -68.52190 | 34073 ft | 493 kts | 343° |
| 2026-05-04 17:38 | 27.92270 | -68.53694 | 34077 ft | 493 kts | 343° |
| 2026-05-04 17:38 | 27.98976 | -68.55201 | 34087 ft | 495 kts | 343° |
| 2026-05-04 17:39 | 28.09096 | -68.57477 | 34082 ft | 492 kts | 343° |
| 2026-05-04 17:39 | 28.15827 | -68.58999 | 34061 ft | 494 kts | 343° |
| 2026-05-04 17:40 | 28.22577 | -68.60514 | 34076 ft | 496 kts | 342° |
| 2026-05-04 17:40 | 28.29368 | -68.62038 | 34082 ft | 498 kts | 342° |
| 2026-05-04 17:41 | 28.36176 | -68.63584 | 34085 ft | 499 kts | 342° |
| 2026-05-04 17:41 | 28.42990 | -68.65134 | 34093 ft | 501 kts | 342° |
| 2026-05-04 17:42 | 28.49849 | -68.66689 | 34092 ft | 502 kts | 342° |
| 2026-05-04 17:42 | 28.56700 | -68.68249 | 34090 ft | 503 kts | 342° |
| 2026-05-04 17:43 | 28.63583 | -68.69802 | 34101 ft | 504 kts | 342° |
| 2026-05-04 17:43 | 28.70433 | -68.71352 | 34114 ft | 508 kts | 341° |
| 2026-05-04 17:44 | 28.77343 | -68.72930 | 34123 ft | 506 kts | 342° |
| 2026-05-04 17:44 | 28.84258 | -68.74518 | 34109 ft | 505 kts | 342° |
| 2026-05-04 17:45 | 28.91156 | -68.76086 | 34118 ft | 507 kts | 341° |
| 2026-05-04 17:45 | 28.98072 | -68.77674 | 34117 ft | 508 kts | 341° |
| 2026-05-04 17:46 | 29.05017 | -68.79268 | 34117 ft | 509 kts | 341° |
| 2026-05-04 17:46 | 29.11968 | -68.80858 | 34126 ft | 511 kts | 341° |
| 2026-05-04 17:47 | 29.18936 | -68.82455 | 34143 ft | 512 kts | 341° |
| 2026-05-04 17:47 | 29.25928 | -68.84069 | 34147 ft | 512 kts | 341° |
| 2026-05-04 17:48 | 29.32918 | -68.85671 | 34152 ft | 513 kts | 341° |
| 2026-05-04 17:48 | 29.39918 | -68.87285 | 34152 ft | 513 kts | 341° |
| 2026-05-04 17:49 | 29.46932 | -68.88903 | 34159 ft | 515 kts | 341° |
| 2026-05-04 17:49 | 29.53963 | -68.90527 | 34163 ft | 515 kts | 341° |
| 2026-05-04 17:50 | 29.60949 | -68.92148 | 34183 ft | 516 kts | 341° |
| 2026-05-04 17:50 | 29.66851 | -68.93523 | 34173 ft | 515 kts | 341° |
| 2026-05-04 17:51 | 29.73868 | -68.95151 | 34177 ft | 514 kts | 341° |
| 2026-05-04 17:51 | 29.81968 | -68.97015 | 34162 ft | 508 kts | 340° |
| 2026-05-04 17:52 | 29.87786 | -68.98372 | 34144 ft | 511 kts | 341° |
| 2026-05-04 17:52 | 29.94697 | -68.99993 | 34161 ft | 509 kts | 340° |
| 2026-05-04 17:53 | 30.01638 | -69.01631 | 34167 ft | 509 kts | 340° |
| 2026-05-04 17:53 | 30.08576 | -69.03258 | 34169 ft | 508 kts | 340° |
| 2026-05-04 17:54 | 30.15496 | -69.04881 | 34172 ft | 507 kts | 340° |
| 2026-05-04 17:54 | 30.22412 | -69.06491 | 34178 ft | 506 kts | 340° |
| 2026-05-04 17:55 | 30.29322 | -69.08104 | 34177 ft | 506 kts | 340° |
| 2026-05-04 17:55 | 30.36169 | -69.09721 | 34173 ft | 506 kts | 340° |
| 2026-05-04 17:56 | 30.43076 | -69.11364 | 34170 ft | 507 kts | 340° |
| 2026-05-04 17:56 | 30.49980 | -69.12995 | 34166 ft | 507 kts | 340° |
| 2026-05-04 17:57 | 30.56894 | -69.14615 | 34169 ft | 505 kts | 340° |
| 2026-05-04 17:57 | 30.63782 | -69.16248 | 34187 ft | 505 kts | 340° |
| 2026-05-04 17:58 | 30.70684 | -69.17875 | 34174 ft | 504 kts | 340° |
| 2026-05-04 17:58 | 30.77540 | -69.19502 | 34163 ft | 502 kts | 340° |
| 2026-05-04 17:59 | 30.84388 | -69.21143 | 34147 ft | 504 kts | 339° |
| 2026-05-04 18:00 | 30.94714 | -69.23605 | 34156 ft | 505 kts | 339° |
| 2026-05-04 18:00 | 31.01631 | -69.25236 | 34113 ft | 506 kts | 339° |
| 2026-05-04 18:01 | 31.08513 | -69.26894 | 34145 ft | 504 kts | 339° |
| 2026-05-04 18:01 | 31.15409 | -69.28566 | 34167 ft | 507 kts | 339° |
| 2026-05-04 18:02 | 31.25754 | -69.31038 | 34189 ft | 508 kts | 339° |
| 2026-05-04 18:02 | 31.32668 | -69.32689 | 34199 ft | 507 kts | 338° |
| 2026-05-04 18:03 | 31.39592 | -69.34353 | 34203 ft | 507 kts | 338° |
| 2026-05-04 18:03 | 31.46499 | -69.36027 | 34205 ft | 506 kts | 338° |
| 2026-05-04 18:04 | 31.53385 | -69.37688 | 34205 ft | 506 kts | 338° |
| 2026-05-04 18:05 | 31.63730 | -69.40176 | 34207 ft | 505 kts | 338° |
| 2026-05-04 18:05 | 31.70622 | -69.41840 | 34195 ft | 506 kts | 339° |
| 2026-05-04 18:06 | 31.80955 | -69.44355 | 34199 ft | 505 kts | 339° |
| 2026-05-04 18:06 | 31.87848 | -69.46031 | 34202 ft | 506 kts | 339° |
| 2026-05-04 18:07 | 31.94754 | -69.47706 | 34192 ft | 506 kts | 339° |
| 2026-05-04 18:07 | 32.01654 | -69.49386 | 34189 ft | 507 kts | 339° |
| 2026-05-04 18:08 | 32.08574 | -69.51088 | 34184 ft | 508 kts | 340° |
| 2026-05-04 18:08 | 32.15507 | -69.52791 | 34176 ft | 510 kts | 340° |
| 2026-05-04 18:09 | 32.29386 | -69.56184 | 34178 ft | 512 kts | 340° |
| 2026-05-04 18:10 | 32.36384 | -69.57912 | 34169 ft | 515 kts | 340° |
| 2026-05-04 18:10 | 32.43407 | -69.59639 | 34165 ft | 517 kts | 340° |
| 2026-05-04 18:11 | 32.50449 | -69.61367 | 34175 ft | 518 kts | 340° |
| 2026-05-04 18:11 | 32.57515 | -69.63107 | 34173 ft | 519 kts | 340° |
| 2026-05-04 18:12 | 32.64586 | -69.64868 | 34182 ft | 519 kts | 340° |
| 2026-05-04 18:12 | 32.71665 | -69.66621 | 34186 ft | 521 kts | 339° |
| 2026-05-04 18:13 | 32.78786 | -69.68397 | 34198 ft | 521 kts | 339° |
| 2026-05-04 18:14 | 32.89497 | -69.71050 | 34192 ft | 525 kts | 339° |
| 2026-05-04 18:14 | 32.96660 | -69.72831 | 34201 ft | 526 kts | 338° |
| 2026-05-04 18:15 | 33.11004 | -69.76420 | 34220 ft | 526 kts | 338° |
| 2026-05-04 18:16 | 33.18171 | -69.78217 | 34214 ft | 525 kts | 337° |
| 2026-05-04 18:16 | 33.25310 | -69.80005 | 34210 ft | 525 kts | 336° |
| 2026-05-04 18:17 | 33.35996 | -69.82693 | 34221 ft | 526 kts | 336° |
| 2026-05-04 18:18 | 33.46725 | -69.85390 | 34232 ft | 524 kts | 336° |
| 2026-05-04 18:18 | 33.53855 | -69.87181 | 34238 ft | 523 kts | 336° |
| 2026-05-04 18:19 | 33.64506 | -69.89881 | 34243 ft | 519 kts | 335° |
| 2026-05-04 18:19 | 33.71556 | -69.91666 | 34228 ft | 518 kts | 335° |
| 2026-05-04 18:20 | 33.78583 | -69.93453 | 34227 ft | 515 kts | 336° |
| 2026-05-04 18:20 | 33.85530 | -69.95225 | 34236 ft | 513 kts | 336° |
| 2026-05-04 18:21 | 33.92510 | -69.97008 | 34240 ft | 512 kts | 336° |
| 2026-05-04 18:21 | 33.99479 | -69.98794 | 34246 ft | 511 kts | 336° |
| 2026-05-04 18:22 | 34.06427 | -70.00562 | 34250 ft | 510 kts | 336° |
| 2026-05-04 18:22 | 34.13361 | -70.02336 | 34239 ft | 508 kts | 336° |
| 2026-05-04 18:23 | 34.20267 | -70.04102 | 34254 ft | 506 kts | 336° |
| 2026-05-04 18:23 | 34.27148 | -70.05869 | 34253 ft | 504 kts | 337° |
| 2026-05-04 18:24 | 34.33990 | -70.07642 | 34251 ft | 502 kts | 337° |
| 2026-05-04 18:24 | 34.40808 | -70.09402 | 34245 ft | 500 kts | 337° |
| 2026-05-04 18:25 | 34.47601 | -70.11154 | 34247 ft | 498 kts | 337° |
| 2026-05-04 18:25 | 34.54334 | -70.12896 | 34246 ft | 497 kts | 337° |
| 2026-05-04 18:26 | 34.61090 | -70.14651 | 34251 ft | 496 kts | 337° |
| 2026-05-04 18:26 | 34.67823 | -70.16396 | 34245 ft | 494 kts | 337° |
| 2026-05-04 18:27 | 34.74548 | -70.18135 | 34249 ft | 493 kts | 337° |
| 2026-05-04 18:27 | 34.81246 | -70.19882 | 34254 ft | 491 kts | 337° |
| 2026-05-04 18:28 | 34.87931 | -70.21628 | 34246 ft | 490 kts | 337° |
| 2026-05-04 18:28 | 34.94585 | -70.23373 | 34242 ft | 489 kts | 337° |
| 2026-05-04 18:29 | 35.01227 | -70.25124 | 34240 ft | 488 kts | 337° |
| 2026-05-04 18:29 | 35.07868 | -70.26872 | 34244 ft | 488 kts | 338° |
| 2026-05-04 18:30 | 35.17808 | -70.29471 | 34243 ft | 487 kts | 338° |
| 2026-05-04 18:31 | 35.24419 | -70.31215 | 34237 ft | 486 kts | 338° |
| 2026-05-04 18:31 | 35.30969 | -70.32938 | 34233 ft | 484 kts | 338° |
| 2026-05-04 18:32 | 35.37561 | -70.34679 | 34229 ft | 484 kts | 338° |
| 2026-05-04 18:32 | 35.44148 | -70.36427 | 34232 ft | 484 kts | 338° |
| 2026-05-04 18:33 | 35.50733 | -70.38168 | 34221 ft | 484 kts | 338° |
| 2026-05-04 18:33 | 35.57321 | -70.39906 | 34229 ft | 484 kts | 338° |
| 2026-05-04 18:34 | 35.63906 | -70.41658 | 34234 ft | 483 kts | 338° |
| 2026-05-04 18:34 | 35.70473 | -70.43416 | 34231 ft | 483 kts | 338° |
| 2026-05-04 18:35 | 35.77051 | -70.45175 | 34221 ft | 484 kts | 338° |
| 2026-05-04 18:35 | 35.83623 | -70.46936 | 34219 ft | 484 kts | 338° |
| 2026-05-04 18:36 | 35.90206 | -70.48699 | 34228 ft | 484 kts | 338° |
| 2026-05-04 18:36 | 35.96781 | -70.50455 | 34227 ft | 483 kts | 338° |
| 2026-05-04 18:37 | 36.03351 | -70.52213 | 34228 ft | 482 kts | 338° |
| 2026-05-04 18:37 | 36.09858 | -70.53963 | 34224 ft | 482 kts | 338° |
| 2026-05-04 18:38 | 36.16441 | -70.55743 | 34229 ft | 481 kts | 338° |
| 2026-05-04 18:38 | 36.22965 | -70.57509 | 34236 ft | 480 kts | 339° |
| 2026-05-04 18:39 | 36.29441 | -70.59259 | 34228 ft | 479 kts | 339° |
| 2026-05-04 18:39 | 36.35938 | -70.61016 | 34218 ft | 477 kts | 339° |
| 2026-05-04 18:40 | 36.42414 | -70.62779 | 34221 ft | 475 kts | 339° |
| 2026-05-04 18:40 | 36.48866 | -70.64541 | 34213 ft | 474 kts | 339° |
| 2026-05-04 18:41 | 36.55304 | -70.66283 | 34210 ft | 473 kts | 339° |
| 2026-05-04 18:41 | 36.60651 | -70.67737 | 34213 ft | 472 kts | 339° |
| 2026-05-04 18:42 | 36.67059 | -70.69496 | 34216 ft | 471 kts | 339° |
| 2026-05-04 18:42 | 36.73459 | -70.71255 | 34214 ft | 470 kts | 339° |
| 2026-05-04 18:43 | 36.79844 | -70.72997 | 34207 ft | 470 kts | 339° |
| 2026-05-04 18:43 | 36.86223 | -70.74749 | 34196 ft | 468 kts | 339° |
| 2026-05-04 18:44 | 36.92581 | -70.76497 | 34197 ft | 467 kts | 339° |
| 2026-05-04 18:44 | 36.98883 | -70.78234 | 34193 ft | 466 kts | 339° |
| 2026-05-04 18:45 | 37.05206 | -70.79986 | 34189 ft | 465 kts | 339° |
| 2026-05-04 18:45 | 37.11526 | -70.81731 | 34186 ft | 464 kts | 339° |
| 2026-05-04 18:46 | 37.17816 | -70.83475 | 34179 ft | 463 kts | 339° |
| 2026-05-04 18:46 | 37.24103 | -70.85228 | 34175 ft | 463 kts | 339° |
| 2026-05-04 18:47 | 37.30348 | -70.86961 | 34174 ft | 462 kts | 339° |
| 2026-05-04 18:47 | 37.36635 | -70.88710 | 34171 ft | 462 kts | 339° |
| 2026-05-04 18:48 | 37.42917 | -70.90453 | 34165 ft | 462 kts | 339° |
| 2026-05-04 18:48 | 37.49198 | -70.92212 | 34152 ft | 462 kts | 339° |
| 2026-05-04 18:49 | 37.55482 | -70.93967 | 34151 ft | 463 kts | 339° |
| 2026-05-04 18:49 | 37.61770 | -70.95738 | 34152 ft | 463 kts | 339° |
| 2026-05-04 18:50 | 37.67924 | -70.97871 | 34153 ft | 450 kts | 327° |
| 2026-05-04 18:50 | 37.70638 | -70.99716 | 34149 ft | 438 kts | 318° |
| 2026-05-04 18:50 | 37.73009 | -71.02061 | 34144 ft | 428 kts | 309° |
| 2026-05-04 18:51 | 37.76741 | -71.07743 | 34129 ft | 419 kts | 300° |
| 2026-05-04 18:51 | 37.80242 | -71.13652 | 34128 ft | 420 kts | 300° |
| 2026-05-04 18:52 | 37.83754 | -71.19576 | 34125 ft | 422 kts | 300° |
| 2026-05-04 18:52 | 37.87254 | -71.25474 | 34123 ft | 423 kts | 300° |
| 2026-05-04 18:53 | 37.90783 | -71.31424 | 34119 ft | 423 kts | 300° |
| 2026-05-04 18:53 | 37.94314 | -71.37418 | 34116 ft | 424 kts | 300° |
| 2026-05-04 18:54 | 37.97831 | -71.43419 | 34109 ft | 425 kts | 300° |
| 2026-05-04 18:54 | 38.01363 | -71.49429 | 34109 ft | 426 kts | 301° |
| 2026-05-04 18:55 | 38.04907 | -71.55454 | 34112 ft | 426 kts | 301° |
| 2026-05-04 18:55 | 38.10224 | -71.64528 | 34110 ft | 427 kts | 301° |
| 2026-05-04 18:56 | 38.13766 | -71.70587 | 34111 ft | 428 kts | 301° |
| 2026-05-04 18:56 | 38.17283 | -71.76629 | 34115 ft | 428 kts | 301° |
| 2026-05-04 18:57 | 38.20818 | -71.82737 | 34114 ft | 429 kts | 301° |
| 2026-05-04 18:57 | 38.24385 | -71.88829 | 34112 ft | 432 kts | 305° |
| 2026-05-04 18:58 | 38.26564 | -71.91502 | 34110 ft | 441 kts | 317° |
| 2026-05-04 18:58 | 38.29204 | -71.93560 | 34110 ft | 451 kts | 329° |
| 2026-05-04 18:58 | 38.32204 | -71.94861 | 34105 ft | 462 kts | 342° |
| 2026-05-04 18:58 | 38.35437 | -71.95281 | 34105 ft | 472 kts | 354° |
| 2026-05-04 18:59 | 38.42021 | -71.95196 | 34107 ft | 473 kts | 354° |
| 2026-05-04 18:59 | 38.48606 | -71.95133 | 34109 ft | 473 kts | 354° |
| 2026-05-04 19:00 | 38.55194 | -71.95068 | 34109 ft | 473 kts | 354° |
| 2026-05-04 19:00 | 38.61770 | -71.94998 | 34112 ft | 473 kts | 354° |
| 2026-05-04 19:01 | 38.68304 | -71.94922 | 34112 ft | 472 kts | 355° |
| 2026-05-04 19:01 | 38.74865 | -71.94826 | 34110 ft | 471 kts | 355° |
| 2026-05-04 19:02 | 38.81416 | -71.94728 | 34109 ft | 470 kts | 355° |
| 2026-05-04 19:02 | 38.87957 | -71.94648 | 34107 ft | 470 kts | 355° |
| 2026-05-04 19:03 | 38.94464 | -71.94762 | 34099 ft | 463 kts | 347° |
| 2026-05-04 19:03 | 39.00503 | -71.97043 | 34003 ft | 445 kts | 329° |
| 2026-05-04 19:04 | 39.03128 | -71.99045 | 33173 ft | 436 kts | 318° |
| 2026-05-04 19:04 | 39.05481 | -72.01496 | 32266 ft | 434 kts | 317° |
| 2026-05-04 19:04 | 39.07818 | -72.03951 | 31370 ft | 434 kts | 317° |
| 2026-05-04 19:04 | 39.10157 | -72.06395 | 30609 ft | 433 kts | 318° |
| 2026-05-04 19:05 | 39.12494 | -72.08837 | 29768 ft | 432 kts | 319° |
| 2026-05-04 19:05 | 39.14828 | -72.11272 | 28631 ft | 432 kts | 319° |
| 2026-05-04 19:05 | 39.17163 | -72.13715 | 27389 ft | 434 kts | 319° |
| 2026-05-04 19:05 | 39.19499 | -72.16168 | 26505 ft | 430 kts | 319° |
| 2026-05-04 19:06 | 39.21804 | -72.18594 | 25809 ft | 428 kts | 319° |
| 2026-05-04 19:06 | 39.24103 | -72.21022 | 25182 ft | 425 kts | 319° |
| 2026-05-04 19:06 | 39.26383 | -72.23431 | 24570 ft | 422 kts | 319° |
| 2026-05-04 19:06 | 39.28645 | -72.25824 | 23972 ft | 419 kts | 319° |
| 2026-05-04 19:07 | 39.30860 | -72.28165 | 23347 ft | 415 kts | 319° |
| 2026-05-04 19:07 | 39.33118 | -72.30544 | 22648 ft | 412 kts | 319° |
| 2026-05-04 19:07 | 39.35301 | -72.32843 | 21983 ft | 408 kts | 319° |
| 2026-05-04 19:07 | 39.37488 | -72.35152 | 21321 ft | 404 kts | 319° |
| 2026-05-04 19:08 | 39.39658 | -72.37449 | 20693 ft | 401 kts | 319° |
| 2026-05-04 19:08 | 39.41809 | -72.39727 | 20084 ft | 398 kts | 318° |
| 2026-05-04 19:08 | 39.43947 | -72.41989 | 19491 ft | 395 kts | 318° |
| 2026-05-04 19:08 | 39.46065 | -72.44231 | 18904 ft | 392 kts | 318° |
| 2026-05-04 19:09 | 39.48166 | -72.46460 | 18327 ft | 389 kts | 317° |
| 2026-05-04 19:09 | 39.50253 | -72.48683 | 17685 ft | 386 kts | 317° |
| 2026-05-04 19:09 | 39.52318 | -72.50884 | 17049 ft | 383 kts | 317° |
| 2026-05-04 19:09 | 39.54368 | -72.53070 | 16454 ft | 380 kts | 317° |
| 2026-05-04 19:10 | 39.56404 | -72.55242 | 15896 ft | 378 kts | 317° |
| 2026-05-04 19:10 | 39.58422 | -72.57398 | 15335 ft | 375 kts | 317° |
| 2026-05-04 19:10 | 39.60424 | -72.59543 | 14821 ft | 372 kts | 317° |
| 2026-05-04 19:10 | 39.62416 | -72.61677 | 14339 ft | 370 kts | 317° |
| 2026-05-04 19:11 | 39.64400 | -72.63799 | 13857 ft | 368 kts | 317° |
| 2026-05-04 19:11 | 39.66369 | -72.65900 | 13327 ft | 366 kts | 317° |
| 2026-05-04 19:11 | 39.68327 | -72.67993 | 12797 ft | 363 kts | 317° |
| 2026-05-04 19:11 | 39.70260 | -72.70067 | 12283 ft | 359 kts | 317° |
| 2026-05-04 19:12 | 39.72179 | -72.72130 | 11759 ft | 356 kts | 317° |
| 2026-05-04 19:12 | 39.75974 | -72.76209 | 10813 ft | 351 kts | 317° |
| 2026-05-04 19:12 | 39.77839 | -72.78212 | 10392 ft | 342 kts | 317° |
| 2026-05-04 19:13 | 39.79620 | -72.80126 | 10106 ft | 330 kts | 317° |
| 2026-05-04 19:13 | 39.81180 | -72.82164 | 10072 ft | 306 kts | 303° |
| 2026-05-04 19:13 | 39.82070 | -72.84558 | 10088 ft | 285 kts | 285° |
| 2026-05-04 19:13 | 39.82307 | -72.87034 | 10083 ft | 269 kts | 270° |
| 2026-05-04 19:14 | 39.82290 | -72.89439 | 10080 ft | 265 kts | 270° |
| 2026-05-04 19:14 | 39.82275 | -72.91832 | 10075 ft | 264 kts | 270° |
| 2026-05-04 19:14 | 39.82260 | -72.94224 | 10078 ft | 264 kts | 270° |
| 2026-05-04 19:14 | 39.82244 | -72.96613 | 10075 ft | 264 kts | 270° |
| 2026-05-04 19:15 | 39.82226 | -72.98997 | 10071 ft | 263 kts | 270° |
| 2026-05-04 19:15 | 39.82206 | -73.01379 | 10073 ft | 265 kts | 270° |
| 2026-05-04 19:15 | 39.82186 | -73.03766 | 10071 ft | 264 kts | 270° |
| 2026-05-04 19:15 | 39.82164 | -73.06158 | 10076 ft | 264 kts | 270° |
| 2026-05-04 19:16 | 39.82141 | -73.08546 | 10075 ft | 264 kts | 270° |
| 2026-05-04 19:16 | 39.82121 | -73.10937 | 10077 ft | 264 kts | 270° |
| 2026-05-04 19:16 | 39.82102 | -73.13330 | 10085 ft | 264 kts | 270° |
| 2026-05-04 19:16 | 39.82080 | -73.15718 | 10097 ft | 264 kts | 270° |
| 2026-05-04 19:17 | 39.82057 | -73.18114 | 10095 ft | 265 kts | 270° |
| 2026-05-04 19:17 | 39.82035 | -73.20483 | 10089 ft | 265 kts | 270° |
| 2026-05-04 19:17 | 39.82013 | -73.22884 | 10093 ft | 266 kts | 270° |
| 2026-05-04 19:17 | 39.81992 | -73.25285 | 10094 ft | 265 kts | 270° |
| 2026-05-04 19:18 | 39.81969 | -73.27685 | 10096 ft | 265 kts | 270° |
| 2026-05-04 19:18 | 39.81946 | -73.30083 | 10089 ft | 265 kts | 270° |
| 2026-05-04 19:18 | 39.81922 | -73.32477 | 10090 ft | 265 kts | 270° |
| 2026-05-04 19:18 | 39.81898 | -73.34875 | 10082 ft | 265 kts | 270° |
| 2026-05-04 19:19 | 39.81871 | -73.37266 | 10080 ft | 265 kts | 270° |
| 2026-05-04 19:19 | 39.81843 | -73.39665 | 10076 ft | 265 kts | 270° |
| 2026-05-04 19:19 | 39.81814 | -73.42071 | 10077 ft | 266 kts | 270° |
| 2026-05-04 19:19 | 39.81786 | -73.44480 | 10082 ft | 267 kts | 270° |
| 2026-05-04 19:20 | 39.81760 | -73.46895 | 10079 ft | 267 kts | 270° |
| 2026-05-04 19:20 | 39.81732 | -73.49302 | 10079 ft | 267 kts | 270° |
| 2026-05-04 19:20 | 39.81701 | -73.51710 | 10084 ft | 266 kts | 270° |
| 2026-05-04 19:20 | 39.81669 | -73.54118 | 10094 ft | 266 kts | 269° |
| 2026-05-04 19:21 | 39.81637 | -73.56522 | 10092 ft | 266 kts | 269° |
| 2026-05-04 19:21 | 39.81607 | -73.58938 | 10088 ft | 266 kts | 269° |
| 2026-05-04 19:21 | 39.81577 | -73.61317 | 10088 ft | 265 kts | 270° |
| 2026-05-04 19:21 | 39.81547 | -73.63716 | 10081 ft | 265 kts | 270° |
| 2026-05-04 19:22 | 39.81515 | -73.66110 | 10078 ft | 265 kts | 269° |
| 2026-05-04 19:22 | 39.81476 | -73.68512 | 10074 ft | 266 kts | 268° |
| 2026-05-04 19:22 | 39.81363 | -73.70905 | 10086 ft | 265 kts | 266° |
| 2026-05-04 19:22 | 39.81200 | -73.73296 | 10084 ft | 265 kts | 265° |
| 2026-05-04 19:23 | 39.81022 | -73.75691 | 10084 ft | 267 kts | 265° |
| 2026-05-04 19:23 | 39.80845 | -73.78093 | 10086 ft | 267 kts | 265° |
| 2026-05-04 19:23 | 39.80669 | -73.80501 | 10082 ft | 268 kts | 266° |
| 2026-05-04 19:23 | 39.80497 | -73.82909 | 10094 ft | 267 kts | 266° |
| 2026-05-04 19:24 | 39.80332 | -73.85314 | 10082 ft | 267 kts | 266° |
| 2026-05-04 19:24 | 39.80168 | -73.87712 | 10080 ft | 266 kts | 266° |
| 2026-05-04 19:24 | 39.80003 | -73.90108 | 10070 ft | 266 kts | 266° |
| 2026-05-04 19:24 | 39.79841 | -73.92492 | 10070 ft | 266 kts | 266° |
| 2026-05-04 19:25 | 39.79697 | -73.94893 | 10061 ft | 266 kts | 270° |
| 2026-05-04 19:25 | 39.79788 | -73.97293 | 10055 ft | 266 kts | 274° |
| 2026-05-04 19:25 | 39.79900 | -73.99692 | 9822 ft | 265 kts | 274° |
| 2026-05-04 19:25 | 39.80006 | -74.02078 | 9558 ft | 263 kts | 274° |
| 2026-05-04 19:26 | 39.80110 | -74.04452 | 9292 ft | 263 kts | 274° |
| 2026-05-04 19:26 | 39.80214 | -74.06821 | 9026 ft | 262 kts | 274° |
| 2026-05-04 19:26 | 39.80317 | -74.09180 | 8771 ft | 261 kts | 274° |
| 2026-05-04 19:26 | 39.80416 | -74.11532 | 8521 ft | 260 kts | 273° |
| 2026-05-04 19:27 | 39.80513 | -74.13856 | 8266 ft | 259 kts | 274° |
| 2026-05-04 19:27 | 39.80612 | -74.16193 | 8008 ft | 258 kts | 273° |
| 2026-05-04 19:27 | 39.80709 | -74.18522 | 7767 ft | 257 kts | 273° |
| 2026-05-04 19:27 | 39.80806 | -74.20838 | 7505 ft | 256 kts | 273° |
| 2026-05-04 19:28 | 39.80905 | -74.23152 | 7258 ft | 256 kts | 273° |
| 2026-05-04 19:28 | 39.81002 | -74.25465 | 7012 ft | 255 kts | 273° |
| 2026-05-04 19:28 | 39.81097 | -74.27764 | 6763 ft | 255 kts | 272° |
| 2026-05-04 19:28 | 39.81192 | -74.30071 | 6518 ft | 255 kts | 272° |
| 2026-05-04 19:29 | 39.81287 | -74.32364 | 6269 ft | 253 kts | 272° |
| 2026-05-04 19:29 | 39.81382 | -74.34657 | 6081 ft | 253 kts | 272° |
| 2026-05-04 19:29 | 39.81475 | -74.36937 | 6041 ft | 254 kts | 272° |
| 2026-05-04 19:29 | 39.81571 | -74.39236 | 6046 ft | 254 kts | 273° |
| 2026-05-04 19:30 | 39.81923 | -74.41485 | 6049 ft | 255 kts | 289° |
| 2026-05-04 19:30 | 39.82773 | -74.43518 | 6045 ft | 258 kts | 305° |
| 2026-05-04 19:30 | 39.84068 | -74.45159 | 6056 ft | 263 kts | 321° |
| 2026-05-04 19:30 | 39.85606 | -74.46475 | 6059 ft | 264 kts | 323° |
| 2026-05-04 19:31 | 39.87132 | -74.47775 | 6048 ft | 262 kts | 323° |
| 2026-05-04 19:31 | 39.88663 | -74.49087 | 6032 ft | 263 kts | 323° |
| 2026-05-04 19:31 | 39.90193 | -74.50398 | 6037 ft | 263 kts | 323° |
| 2026-05-04 19:31 | 39.91705 | -74.51694 | 6038 ft | 263 kts | 323° |
| 2026-05-04 19:32 | 39.93236 | -74.53009 | 6030 ft | 263 kts | 322° |
| 2026-05-04 19:32 | 39.94764 | -74.54323 | 6024 ft | 263 kts | 323° |
| 2026-05-04 19:32 | 39.96293 | -74.55640 | 6032 ft | 264 kts | 323° |
| 2026-05-04 19:32 | 39.97828 | -74.56959 | 6037 ft | 265 kts | 323° |
| 2026-05-04 19:33 | 39.99435 | -74.58117 | 6026 ft | 267 kts | 335° |
| 2026-05-04 19:33 | 40.01259 | -74.58646 | 6024 ft | 273 kts | 353° |
| 2026-05-04 19:33 | 40.03163 | -74.58430 | 6029 ft | 279 kts | 10° |
| 2026-05-04 19:33 | 40.05001 | -74.57547 | 6031 ft | 281 kts | 19° |
| 2026-05-04 19:34 | 40.06818 | -74.56582 | 6032 ft | 283 kts | 18° |
| 2026-05-04 19:34 | 40.08637 | -74.55619 | 6024 ft | 282 kts | 18° |
| 2026-05-04 19:34 | 40.10462 | -74.54659 | 6032 ft | 283 kts | 18° |
| 2026-05-04 19:34 | 40.12288 | -74.53700 | 6040 ft | 282 kts | 18° |
| 2026-05-04 19:35 | 40.14103 | -74.52745 | 6025 ft | 282 kts | 18° |
| 2026-05-04 19:35 | 40.15947 | -74.51918 | 6020 ft | 278 kts | 9° |
| 2026-05-04 19:35 | 40.17206 | -74.51628 | 6029 ft | 276 kts | 2° |
| 2026-05-04 19:35 | 40.19113 | -74.51583 | 6033 ft | 273 kts | 351° |
| 2026-05-04 19:36 | 40.20980 | -74.51990 | 6030 ft | 270 kts | 341° |
| 2026-05-04 19:36 | 40.22742 | -74.52818 | 6025 ft | 267 kts | 330° |
| 2026-05-04 19:36 | 40.24330 | -74.54029 | 6024 ft | 263 kts | 320° |
| 2026-05-04 19:36 | 40.25753 | -74.55536 | 6023 ft | 263 kts | 316° |
| 2026-05-04 19:37 | 40.27609 | -74.57571 | 6019 ft | 263 kts | 316° |
| 2026-05-04 19:37 | 40.28559 | -74.58610 | 6018 ft | 262 kts | 316° |
| 2026-05-04 19:37 | 40.29959 | -74.60142 | 6018 ft | 263 kts | 316° |
| 2026-05-04 19:37 | 40.31375 | -74.61652 | 6024 ft | 264 kts | 321° |
| 2026-05-04 19:38 | 40.33003 | -74.62803 | 6018 ft | 269 kts | 335° |
| 2026-05-04 19:38 | 40.34779 | -74.63603 | 6015 ft | 270 kts | 337° |
| 2026-05-04 19:38 | 40.36539 | -74.64388 | 6015 ft | 270 kts | 336° |
| 2026-05-04 19:38 | 40.38317 | -74.65183 | 6028 ft | 270 kts | 337° |
| 2026-05-04 19:39 | 40.40121 | -74.65906 | 6015 ft | 274 kts | 345° |
| 2026-05-04 19:39 | 40.42044 | -74.65970 | 6011 ft | 280 kts | 5° |
| 2026-05-04 19:39 | 40.43912 | -74.65204 | 5988 ft | 286 kts | 24° |
| 2026-05-04 19:39 | 40.45568 | -74.63725 | 5996 ft | 289 kts | 34° |
| 2026-05-04 19:40 | 40.47165 | -74.62128 | 5991 ft | 289 kts | 35° |
| 2026-05-04 19:40 | 40.48762 | -74.60534 | 5979 ft | 289 kts | 34° |
| 2026-05-04 19:40 | 40.50367 | -74.58934 | 5995 ft | 289 kts | 34° |
| 2026-05-04 19:40 | 40.51968 | -74.57337 | 5994 ft | 288 kts | 34° |
| 2026-05-04 19:41 | 40.53565 | -74.55747 | 5993 ft | 289 kts | 34° |
| 2026-05-04 19:41 | 40.55168 | -74.54153 | 5991 ft | 288 kts | 34° |
| 2026-05-04 19:41 | 40.56765 | -74.52567 | 5997 ft | 289 kts | 34° |
| 2026-05-04 19:41 | 40.58366 | -74.50976 | 5999 ft | 289 kts | 34° |
| 2026-05-04 19:42 | 40.59972 | -74.49380 | 5988 ft | 289 kts | 34° |
| 2026-05-04 19:42 | 40.61578 | -74.47783 | 6000 ft | 289 kts | 34° |
| 2026-05-04 19:42 | 40.63176 | -74.46192 | 6002 ft | 289 kts | 34° |
| 2026-05-04 19:42 | 40.64786 | -74.44584 | 6015 ft | 290 kts | 34° |
| 2026-05-04 19:43 | 40.66390 | -74.42978 | 6000 ft | 290 kts | 34° |
| 2026-05-04 19:43 | 40.67997 | -74.41369 | 6001 ft | 290 kts | 34° |
| 2026-05-04 19:43 | 40.69602 | -74.39761 | 6018 ft | 290 kts | 34° |
| 2026-05-04 19:43 | 40.71208 | -74.38149 | 6022 ft | 290 kts | 34° |
| 2026-05-04 19:44 | 40.72766 | -74.36591 | 6010 ft | 290 kts | 34° |
| 2026-05-04 19:44 | 40.74421 | -74.34935 | 5913 ft | 290 kts | 34° |
| 2026-05-04 19:44 | 40.76014 | -74.33336 | 5653 ft | 288 kts | 34° |
| 2026-05-04 19:44 | 40.77602 | -74.31738 | 5410 ft | 287 kts | 35° |
| 2026-05-04 19:45 | 40.79189 | -74.30135 | 5148 ft | 286 kts | 35° |
| 2026-05-04 19:45 | 40.80765 | -74.28547 | 4900 ft | 284 kts | 35° |
| 2026-05-04 19:45 | 40.82345 | -74.26959 | 4638 ft | 285 kts | 35° |
| 2026-05-04 19:45 | 40.83909 | -74.25383 | 4393 ft | 284 kts | 35° |
| 2026-05-04 19:46 | 40.85493 | -74.23790 | 4134 ft | 284 kts | 36° |
| 2026-05-04 19:46 | 40.87061 | -74.22212 | 3861 ft | 283 kts | 35° |
| 2026-05-04 19:46 | 40.88513 | -74.20483 | 3633 ft | 282 kts | 52° |
| 2026-05-04 19:46 | 40.89391 | -74.18207 | 3489 ft | 275 kts | 76° |
| 2026-05-04 19:47 | 40.89527 | -74.15760 | 3363 ft | 263 kts | 101° |
| 2026-05-04 19:47 | 40.88990 | -74.13546 | 3231 ft | 249 kts | 123° |
| 2026-05-04 19:47 | 40.87947 | -74.11821 | 3128 ft | 233 kts | 145° |
| 2026-05-04 19:47 | 40.86706 | -74.10502 | 3022 ft | 226 kts | 147° |
| 2026-05-04 19:48 | 40.85509 | -74.09253 | 2992 ft | 216 kts | 150° |
| 2026-05-04 19:48 | 40.84237 | -74.08434 | 2928 ft | 200 kts | 171° |
| 2026-05-04 19:48 | 40.82916 | -74.08230 | 2795 ft | 185 kts | 188° |
| 2026-05-04 19:48 | 40.81699 | -74.08561 | 2574 ft | 176 kts | 206° |
| 2026-05-04 19:49 | 40.80602 | -74.09239 | 2362 ft | 173 kts | 209° |
| 2026-05-04 19:49 | 40.79523 | -74.09928 | 2136 ft | 172 kts | 209° |
| 2026-05-04 19:49 | 40.78457 | -74.10608 | 1905 ft | 169 kts | 208° |
| 2026-05-04 19:49 | 40.77399 | -74.11283 | 1690 ft | 164 kts | 210° |
| 2026-05-04 19:50 | 40.76426 | -74.11902 | 1471 ft | 148 kts | 209° |
| 2026-05-04 19:50 | 40.75542 | -74.12465 | 1304 ft | 134 kts | 209° |
| 2026-05-04 19:50 | 40.74709 | -74.12997 | 1117 ft | 131 kts | 210° |
| 2026-05-04 19:50 | 40.73878 | -74.13528 | 935 ft | 132 kts | 209° |
| 2026-05-04 19:51 | 40.73052 | -74.14053 | 753 ft | 132 kts | 210° |
| 2026-05-04 19:51 | 40.72224 | -74.14581 | 578 ft | 131 kts | 212° |
| 2026-05-04 19:51 | 40.71416 | -74.15096 | 421 ft | 129 kts | 208° |
| 2026-05-04 19:51 | 40.70660 | -74.15571 | 217 ft | 131 kts | 210° |
| 2026-05-04 19:52 | 40.69847 | -74.16095 | 73 ft | 131 kts | 210° |
| 2026-05-04 19:52 | 40.69169 | -74.16528 | 28 ft | 107 kts | 206° |
| 2026-05-04 19:52 | 40.68640 | -74.16867 | 22 ft | 66 kts | 206° |
| 2026-05-04 19:52 | 40.68369 | -74.17049 | 23 ft | 31 kts | 216° |
| 2026-05-04 19:53 | 40.68225 | -74.17252 | 22 ft | 30 kts | 235° |
| 2026-05-04 19:53 | 40.68149 | -74.17400 | 21 ft | 13 kts | 240° |
| 2026-05-04 19:53 | 40.68173 | -74.17522 | 22 ft | 16 kts | 296° |
| 2026-05-04 19:53 | 40.68223 | -74.17644 | 22 ft | 11 kts | 324° |
| 2026-05-04 19:54 | 40.68291 | -74.17689 | 22 ft | 13 kts | 302° |
| 2026-05-04 19:54 | 40.68335 | -74.17809 | 22 ft | 16 kts | 295° |
| 2026-05-04 19:54 | 40.68387 | -74.17952 | 22 ft | 19 kts | 296° |
| 2026-05-04 19:54 | 40.68452 | -74.18119 | 22 ft | 22 kts | 304° |
| 2026-05-04 19:55 | 40.68498 | -74.18241 | 22 ft | 14 kts | 272° |
| 2026-05-04 19:55 | 40.68456 | -74.18281 | 22 ft | 9 kts | 184° |
| 2026-05-04 19:55 | 40.68430 | -74.18284 | 22 ft | 0 kts | 186° |